Time;durP1;ratioP1;P1;durP2;ratioP2;P2;SDS_P1;SDS_P2;PMS_P1;PMS_P2;Temp;Humidity;BMP_temperature;BMP_pressure;BME280_temperature;BME280_humidity;BME280_pressure;Samples;Min_cycle;Max_cycle;Signal;HPM_P1;HPM_P2
2022/10/12 00:00:39;;;;;;;7.20;3.33;;;6.90;99.90;;;;;;5031398;28;20082;-93
2022/10/12 00:03:04;;;;;;;7.85;3.28;;;6.90;99.90;;;;;;5049600;28;20029;-91
2022/10/12 00:05:30;;;;;;;9.40;4.95;;;7.00;99.90;;;;;;5046526;28;20040;-91
2022/10/12 00:07:56;;;;;;;11.77;4.15;;;7.00;99.90;;;;;;5048418;28;20029;-92
2022/10/12 00:10:22;;;;;;;11.77;5.35;;;7.10;99.90;;;;;;5034045;28;20059;-90
2022/10/12 00:12:47;;;;;;;10.02;3.72;;;7.10;99.90;;;;;;5073522;28;20488;-91
2022/10/12 00:15:13;;;;;;;7.15;3.60;;;7.20;99.90;;;;;;5094045;28;20128;-90
2022/10/12 00:17:39;;;;;;;8.77;3.85;;;7.10;99.90;;;;;;5073082;28;20040;-91
2022/10/12 00:20:05;;;;;;;8.63;3.42;;;7.10;99.90;;;;;;5067167;28;20032;-92
2022/10/12 00:22:31;;;;;;;9.95;5.00;;;7.00;99.90;;;;;;5073620;28;20036;-92
2022/10/12 00:24:56;;;;;;;9.57;3.75;;;7.10;99.90;;;;;;5098921;28;20058;-91
2022/10/12 00:27:22;;;;;;;10.80;5.13;;;7.10;99.90;;;;;;5067163;28;20054;-91
2022/10/12 00:29:48;;;;;;;7.90;3.17;;;7.00;99.90;;;;;;5062603;28;20042;-92
2022/10/12 00:32:14;;;;;;;10.60;3.97;;;7.00;99.90;;;;;;5072074;28;20044;-92
2022/10/12 00:34:40;;;;;;;9.85;4.72;;;6.90;99.90;;;;;;5071249;28;20508;-91
2022/10/12 00:37:05;;;;;;;9.02;3.60;;;6.90;99.90;;;;;;5056205;28;20109;-91
2022/10/12 00:39:31;;;;;;;11.07;6.03;;;6.90;99.90;;;;;;5090463;28;20039;-91
2022/10/12 00:41:57;;;;;;;10.38;3.97;;;6.90;99.90;;;;;;5071818;28;20678;-89
2022/10/12 00:44:43;;;;;;;8.68;3.83;;;6.90;99.90;;;;;;5048517;28;20040;-91
2022/10/12 00:47:29;;;;;;;11.93;4.43;;;6.80;99.90;;;;;;5072236;28;20028;-92
2022/10/12 00:50:10;;;;;;;10.77;4.00;;;6.80;99.90;;;;;;5070049;28;20097;-93
2022/10/12 00:53:05;;;;;;;8.18;3.65;;;6.80;99.90;;;;;;5052672;28;20047;-92
2022/10/12 00:55:38;;;;;;;9.38;3.92;;;6.70;99.90;;;;;;5073741;28;20043;-91
2022/10/12 00:58:05;;;;;;;11.38;4.65;;;6.70;99.90;;;;;;5092768;28;20097;-91
2022/10/12 01:00:30;;;;;;;11.90;6.88;;;6.70;99.90;;;;;;5051858;28;20075;-92
2022/10/12 01:02:57;;;;;;;12.63;7.13;;;6.80;99.90;;;;;;5056096;28;20068;-92
2022/10/12 01:05:23;;;;;;;8.60;4.15;;;6.80;99.90;;;;;;5070710;28;20044;-92
2022/10/12 01:07:49;;;;;;;10.00;3.85;;;6.80;99.90;;;;;;5053814;28;20075;-91
2022/10/12 01:10:15;;;;;;;8.27;4.35;;;6.70;99.90;;;;;;5072941;28;20059;-91
2022/10/12 01:12:42;;;;;;;11.90;4.72;;;6.70;99.90;;;;;;5070755;28;20103;-92
2022/10/12 01:15:09;;;;;;;8.80;3.72;;;6.70;99.90;;;;;;5059265;28;20048;-91
2022/10/12 01:17:53;;;;;;;12.18;5.65;;;6.70;99.90;;;;;;5075011;28;20036;-91
2022/10/12 01:21:05;;;;;;;11.48;6.80;;;6.70;99.90;;;;;;5068551;28;20488;-91
2022/10/12 01:23:33;;;;;;;10.88;4.32;;;6.70;99.90;;;;;;4987730;28;20042;-90
2022/10/12 01:26:29;;;;;;;9.32;4.10;;;6.70;99.90;;;;;;4983313;28;20038;-92
2022/10/12 01:29:22;;;;;;;8.40;4.15;;;6.60;99.90;;;;;;4989730;28;20077;-90
2022/10/12 01:32:24;;;;;;;11.27;4.40;;;6.60;99.90;;;;;;4976140;28;20119;-92
2022/10/12 01:34:57;;;;;;;10.30;4.43;;;6.60;99.90;;;;;;4971493;28;20050;-92
2022/10/12 01:37:55;;;;;;;10.77;4.30;;;6.60;99.90;;;;;;4989098;28;20101;-91
2022/10/12 01:40:57;;;;;;;9.32;5.90;;;6.60;99.90;;;;;;4972817;28;20126;-91
2022/10/12 01:43:31;;;;;;;;;;;6.60;99.90;;;;;;4968906;28;20447;-91
2022/10/12 01:46:22;;;;;;;9.70;3.78;;;6.50;99.90;;;;;;4982538;28;20030;-91
2022/10/12 01:48:51;;;;;;;8.30;3.90;;;6.50;99.90;;;;;;4956610;28;20060;-91
2022/10/12 01:51:55;;;;;;;9.32;3.88;;;6.50;99.90;;;;;;4985593;28;20066;-92
2022/10/12 01:54:59;;;;;;;9.88;4.05;;;6.50;99.90;;;;;;4983298;28;20597;-91
2022/10/12 01:57:43;;;;;;;7.38;3.75;;;6.50;99.90;;;;;;4998160;28;20052;-92
2022/10/12 02:00:11;;;;;;;7.97;4.18;;;6.50;99.90;;;;;;5025746;28;20549;-92
2022/10/12 02:03:28;;;;;;;12.15;6.20;;;6.50;99.90;;;;;;5029345;28;20643;-91
2022/10/12 02:06:00;;;;;;;9.57;4.40;;;6.60;99.90;;;;;;5027293;28;20046;-91
2022/10/12 02:08:43;;;;;;;9.27;4.32;;;6.50;99.90;;;;;;5021184;28;20209;-91
2022/10/12 02:11:17;;;;;;;7.22;4.00;;;6.50;99.90;;;;;;5003429;28;20119;-91
2022/10/12 02:13:50;;;;;;;9.18;3.85;;;6.50;99.90;;;;;;5025132;28;20073;-92
2022/10/12 02:16:22;;;;;;;9.40;4.18;;;6.40;99.90;;;;;;4992576;28;20093;-92
2022/10/12 02:18:52;;;;;;;10.00;5.00;;;6.50;99.90;;;;;;5026431;28;20041;-92
2022/10/12 02:21:26;;;;;;;9.32;4.25;;;6.50;99.90;;;;;;5007913;28;20106;-92
2022/10/12 02:23:52;;;;;;;8.00;4.63;;;6.50;99.90;;;;;;4992078;28;20059;-91
2022/10/12 02:26:19;;;;;;;11.30;6.57;;;6.50;99.90;;;;;;5042207;28;20489;-92
2022/10/12 02:28:47;;;;;;;9.02;4.90;;;6.60;99.90;;;;;;5009698;28;20045;-91
2022/10/12 02:31:28;;;;;;;8.55;4.22;;;6.60;99.90;;;;;;5023813;28;20545;-91
2022/10/12 02:34:17;;;;;;;10.23;4.15;;;6.60;99.90;;;;;;5021938;28;20048;-90
2022/10/12 02:36:54;;;;;;;8.77;4.43;;;6.60;99.90;;;;;;5016201;28;20033;-91
2022/10/12 02:39:27;;;;;;;10.65;5.78;;;6.50;99.90;;;;;;5011947;28;20060;-92
2022/10/12 02:42:00;;;;;;;12.20;8.00;;;6.60;99.90;;;;;;5037810;28;20108;-91
2022/10/12 02:44:32;;;;;;;13.80;6.20;;;6.60;99.90;;;;;;5069747;28;20485;-92
2022/10/12 02:46:59;;;;;;;11.63;5.55;;;6.60;99.90;;;;;;5088608;28;20035;-92
2022/10/12 02:49:27;;;;;;;9.75;5.47;;;6.60;99.90;;;;;;5056311;28;20036;-91
2022/10/12 02:51:55;;;;;;;13.48;5.78;;;6.60;99.90;;;;;;5087302;28;20086;-91
2022/10/12 02:54:21;;;;;;;11.50;5.65;;;6.60;99.90;;;;;;5055827;28;20039;-92
2022/10/12 02:56:47;;;;;;;9.90;4.97;;;6.50;99.90;;;;;;5057100;28;20032;-91
2022/10/12 02:59:15;;;;;;;11.18;5.78;;;6.50;99.90;;;;;;5055194;28;20078;-91
2022/10/12 03:01:41;;;;;;;16.60;10.13;;;6.50;99.90;;;;;;5077106;28;20062;-91
2022/10/12 03:04:07;;;;;;;11.90;6.55;;;6.50;99.90;;;;;;5074984;28;20143;-91
2022/10/12 03:06:33;;;;;;;12.52;6.35;;;6.50;99.90;;;;;;5075593;28;20036;-92
2022/10/12 03:08:58;;;;;;;12.75;6.30;;;6.50;99.90;;;;;;5071994;28;20036;-92
2022/10/12 03:11:24;;;;;;;14.13;9.60;;;6.60;99.90;;;;;;5059491;28;20082;-91
2022/10/12 03:13:54;;;;;;;13.85;6.25;;;6.50;99.90;;;;;;5072542;28;20043;-91
2022/10/12 03:16:20;;;;;;;13.45;6.65;;;6.50;99.90;;;;;;5074171;28;20186;-92
2022/10/12 03:18:45;;;;;;;11.80;7.43;;;6.50;99.90;;;;;;5075209;28;20122;-92
2022/10/12 03:21:11;;;;;;;11.40;6.57;;;6.40;99.90;;;;;;5074021;28;20047;-91
2022/10/12 03:23:38;;;;;;;12.23;6.55;;;6.40;99.90;;;;;;5077033;28;20490;-91
2022/10/12 03:26:04;;;;;;;14.73;7.70;;;6.40;99.90;;;;;;5093064;28;20117;-92
2022/10/12 03:28:31;;;;;;;16.60;10.25;;;6.40;99.90;;;;;;5071181;28;20126;-92
2022/10/12 03:30:57;;;;;;;14.38;8.68;;;6.40;99.90;;;;;;5092059;28;20040;-91
2022/10/12 03:33:23;;;;;;;11.65;6.78;;;6.40;99.90;;;;;;5087269;28;20120;-92
2022/10/12 03:35:49;;;;;;;13.27;7.70;;;6.40;99.90;;;;;;5074973;28;20461;-92
2022/10/12 03:38:15;;;;;;;14.32;6.60;;;6.30;99.90;;;;;;5085886;28;20067;-92
2022/10/12 03:40:41;;;;;;;10.57;5.97;;;6.30;99.90;;;;;;5091407;28;20119;-90
2022/10/12 03:43:07;;;;;;;11.82;6.45;;;6.30;99.90;;;;;;5072476;28;20556;-92
2022/10/12 03:45:33;;;;;;;9.52;5.38;;;6.20;99.90;;;;;;5056899;28;20036;-92
2022/10/12 03:47:59;;;;;;;11.25;6.18;;;6.30;99.90;;;;;;5073853;28;20163;-91
2022/10/12 03:50:26;;;;;;;11.00;6.60;;;6.20;99.90;;;;;;5074320;28;20040;-92
2022/10/12 03:52:51;;;;;;;12.13;6.97;;;6.20;99.90;;;;;;5059127;28;20046;-91
2022/10/12 03:55:17;;;;;;;14.63;7.07;;;6.20;99.90;;;;;;5071917;28;20032;-92
2022/10/12 03:57:44;;;;;;;14.93;9.40;;;6.20;99.90;;;;;;5056179;28;20035;-91
2022/10/12 04:00:11;;;;;;;10.73;6.63;;;6.20;99.90;;;;;;5073942;28;20040;-92
2022/10/12 04:02:37;;;;;;;9.90;4.40;;;6.20;99.90;;;;;;5058024;28;20047;-91
2022/10/12 04:05:04;;;;;;;10.15;4.82;;;6.10;99.90;;;;;;5072125;28;20348;-92
2022/10/12 04:07:29;;;;;;;9.82;5.43;;;6.10;99.90;;;;;;5073927;28;20388;-92
2022/10/12 04:09:55;;;;;;;8.93;5.28;;;6.00;99.90;;;;;;5056699;28;20043;-91
2022/10/12 04:12:21;;;;;;;11.00;5.78;;;6.00;99.90;;;;;;5073144;28;20056;-92
2022/10/12 04:14:47;;;;;;;11.02;6.13;;;6.00;99.90;;;;;;5056694;28;20047;-91
2022/10/12 04:17:15;;;;;;;9.25;5.70;;;6.00;99.90;;;;;;5069388;28;20041;-92
2022/10/12 04:19:41;;;;;;;10.80;4.80;;;5.90;99.90;;;;;;5072818;28;20131;-92
2022/10/12 04:22:07;;;;;;;13.45;6.82;;;5.90;99.90;;;;;;5077495;28;20039;-92
2022/10/12 04:24:33;;;;;;;11.77;5.95;;;5.90;99.90;;;;;;5075279;28;20109;-92
2022/10/12 04:26:58;;;;;;;11.32;7.15;;;5.90;99.90;;;;;;5073000;28;20036;-92
2022/10/12 04:29:24;;;;;;;10.85;6.50;;;5.90;99.90;;;;;;5075724;28;20040;-93
2022/10/12 04:31:50;;;;;;;12.48;6.30;;;5.90;99.90;;;;;;5094325;28;20108;-92
2022/10/12 04:34:15;;;;;;;12.05;6.32;;;5.80;99.90;;;;;;5074492;28;20383;-92
2022/10/12 04:36:41;;;;;;;12.43;6.68;;;5.90;99.90;;;;;;5054648;28;20478;-92
2022/10/12 04:39:07;;;;;;;13.90;6.72;;;5.80;99.90;;;;;;5077620;28;20472;-92
2022/10/12 04:41:33;;;;;;;11.63;6.13;;;5.80;99.90;;;;;;5077541;28;20042;-91
2022/10/12 04:43:59;;;;;;;13.00;7.15;;;5.80;99.90;;;;;;5082899;28;20036;-91
2022/10/12 04:46:24;;;;;;;12.52;6.85;;;5.80;99.90;;;;;;5089654;28;20075;-92
2022/10/12 04:48:50;;;;;;;10.95;5.75;;;5.80;99.90;;;;;;5072663;28;20238;-92
2022/10/12 04:51:16;;;;;;;12.43;6.35;;;5.80;99.90;;;;;;5107617;28;20056;-92
2022/10/12 04:53:41;;;;;;;11.30;5.90;;;5.80;99.90;;;;;;5071731;28;21223;-92
2022/10/12 04:56:08;;;;;;;10.60;6.50;;;5.80;99.90;;;;;;5081981;28;20036;-92
2022/10/12 04:58:33;;;;;;;13.13;6.22;;;5.80;99.90;;;;;;5095245;28;20222;-91
2022/10/12 05:00:59;;;;;;;15.52;6.72;;;5.70;99.90;;;;;;5089010;28;20427;-92
2022/10/12 05:03:25;;;;;;;11.77;5.70;;;5.70;99.90;;;;;;5076930;28;20040;-92
2022/10/12 05:05:51;;;;;;;13.50;7.05;;;5.70;99.90;;;;;;5056579;28;20071;-91
2022/10/12 05:08:17;;;;;;;15.82;7.97;;;5.60;99.90;;;;;;5075808;28;20043;-91
2022/10/12 05:10:45;;;;;;;10.93;6.57;;;5.70;99.90;;;;;;5074734;28;20059;-90
2022/10/12 05:13:11;;;;;;;15.38;6.10;;;5.70;99.90;;;;;;5076502;28;20055;-93
2022/10/12 05:15:37;;;;;;;13.93;8.10;;;5.60;99.90;;;;;;5090248;28;20052;-92
2022/10/12 05:18:02;;;;;;;12.10;6.10;;;5.60;99.90;;;;;;5075689;28;20038;-92
2022/10/12 05:20:28;;;;;;;11.45;6.88;;;5.60;99.90;;;;;;5070659;28;20040;-92
2022/10/12 05:22:56;;;;;;;14.82;6.63;;;5.50;99.90;;;;;;5069475;28;20040;-92
2022/10/12 05:25:22;;;;;;;14.60;7.47;;;5.60;99.90;;;;;;5087614;28;20043;-92
2022/10/12 05:27:47;;;;;;;13.30;5.72;;;5.50;99.90;;;;;;5079484;28;20063;-94
2022/10/12 05:30:13;;;;;;;14.32;7.15;;;5.50;99.90;;;;;;5061437;28;20091;-93
2022/10/12 05:32:39;;;;;;;12.48;6.05;;;5.50;99.90;;;;;;5073110;28;20119;-94
2022/10/12 05:35:05;;;;;;;10.82;6.40;;;5.50;99.90;;;;;;5090004;28;20043;-94
2022/10/12 05:37:32;;;;;;;12.40;7.20;;;5.40;99.90;;;;;;5075889;28;20174;-91
2022/10/12 05:39:58;;;;;;;13.43;7.45;;;5.40;99.90;;;;;;5070825;28;20056;-92
2022/10/12 05:42:24;;;;;;;12.88;7.05;;;5.50;99.90;;;;;;5054140;28;20048;-92
2022/10/12 05:44:49;;;;;;;11.45;6.18;;;5.50;99.90;;;;;;5088791;28;20085;-93
2022/10/12 05:47:15;;;;;;;12.30;6.50;;;5.50;99.90;;;;;;5069993;28;20552;-93
2022/10/12 05:49:41;;;;;;;12.13;6.13;;;5.40;99.90;;;;;;5054922;28;20507;-92
2022/10/12 05:52:06;;;;;;;14.52;6.78;;;5.40;99.90;;;;;;5067765;28;20039;-91
2022/10/12 05:54:32;;;;;;;15.07;6.63;;;5.40;99.90;;;;;;5052194;28;20047;-93
2022/10/12 05:56:58;;;;;;;12.68;7.28;;;5.50;99.90;;;;;;5070228;28;20028;-92
2022/10/12 05:59:23;;;;;;;11.32;5.72;;;5.40;99.90;;;;;;5069831;28;20044;-92
2022/10/12 06:01:49;;;;;;;11.88;6.55;;;5.40;99.90;;;;;;5069640;28;20512;-92
2022/10/12 06:04:15;;;;;;;17.25;10.68;;;5.40;99.90;;;;;;5088073;28;20051;-92
2022/10/12 06:06:41;;;;;;;13.73;6.63;;;5.50;99.90;;;;;;5069693;28;20054;-93
2022/10/12 06:09:06;;;;;;;13.52;6.35;;;5.50;99.90;;;;;;5068035;28;20043;-92
2022/10/12 06:11:33;;;;;;;13.10;7.05;;;5.40;99.90;;;;;;5067178;28;20104;-92
2022/10/12 06:13:58;;;;;;;13.48;6.88;;;5.40;99.90;;;;;;5068123;28;20047;-92
2022/10/12 06:16:24;;;;;;;13.73;6.30;;;5.40;99.90;;;;;;5069777;28;20036;-89
2022/10/12 06:18:50;;;;;;;16.90;7.90;;;5.40;99.90;;;;;;5069725;28;20388;-93
2022/10/12 06:21:15;;;;;;;15.38;7.40;;;5.40;99.90;;;;;;5066182;28;20043;-92
2022/10/12 06:23:41;;;;;;;12.85;6.60;;;5.40;99.90;;;;;;5055873;28;20048;-93
2022/10/12 06:26:07;;;;;;;12.55;7.68;;;5.30;99.90;;;;;;5060245;28;20042;-92
2022/10/12 06:28:32;;;;;;;12.05;5.97;;;5.40;99.90;;;;;;5077197;28;20477;-93
2022/10/12 06:30:59;;;;;;;12.02;7.38;;;5.40;99.90;;;;;;5058710;28;21371;-91
2022/10/12 06:33:26;;;;;;;12.48;7.32;;;5.40;99.90;;;;;;5076414;28;20421;-93
2022/10/12 06:35:52;;;;;;;13.95;8.25;;;5.40;99.90;;;;;;5071337;28;20081;-95
2022/10/12 06:38:18;;;;;;;14.35;7.60;;;5.40;99.90;;;;;;5072179;28;20028;-93
2022/10/12 06:40:44;;;;;;;11.73;6.53;;;5.50;99.90;;;;;;5071461;28;20028;-96
2022/10/12 06:43:10;;;;;;;13.27;8.77;;;5.50;99.90;;;;;;5090228;28;20367;-95
2022/10/12 06:45:37;;;;;;;15.20;7.82;;;5.50;99.90;;;;;;5072993;28;20089;-94
2022/10/12 06:48:04;;;;;;;18.27;14.07;;;5.50;99.90;;;;;;5057471;28;20472;-95
2022/10/12 06:50:29;;;;;;;18.27;8.63;;;5.60;99.90;;;;;;5090249;28;20036;-91
2022/10/12 06:52:55;;;;;;;14.45;7.70;;;5.60;99.90;;;;;;5083436;28;20075;-95
2022/10/12 06:55:21;;;;;;;20.00;8.93;;;5.60;99.90;;;;;;5061114;28;20382;-95
2022/10/12 06:57:46;;;;;;;17.95;8.85;;;5.70;99.90;;;;;;5053666;28;20032;-95
2022/10/12 07:00:13;;;;;;;15.55;8.35;;;5.70;99.90;;;;;;5092599;28;20039;-95
2022/10/12 07:02:39;;;;;;;14.23;7.55;;;5.80;99.90;;;;;;5075923;28;20060;-96
2022/10/12 07:05:06;;;;;;;16.73;7.63;;;5.70;99.90;;;;;;5059026;28;20105;-96
2022/10/12 07:07:33;;;;;;;18.83;8.63;;;5.80;99.90;;;;;;5077564;28;20128;-95
2022/10/12 07:09:59;;;;;;;18.83;9.55;;;5.80;99.90;;;;;;5062290;28;20040;-96
2022/10/12 07:12:28;;;;;;;16.67;8.70;;;5.80;99.90;;;;;;5060976;28;20186;-96
2022/10/12 07:15:00;;;;;;;13.90;8.20;;;5.90;99.90;;;;;;5080420;28;20061;-96
2022/10/12 07:17:28;;;;;;;17.63;8.93;;;5.90;99.90;;;;;;5068168;28;20033;-96
2022/10/12 07:19:54;;;;;;;16.95;9.93;;;5.90;99.90;;;;;;5070531;28;20054;-96
2022/10/12 07:22:19;;;;;;;16.40;10.35;;;6.00;99.90;;;;;;5069076;28;20099;-96
2022/10/12 07:24:48;;;;;;;17.48;10.02;;;6.10;99.90;;;;;;5061440;28;20051;-96
2022/10/12 07:27:14;;;;;;;19.88;10.48;;;6.10;99.90;;;;;;5080292;28;20040;-96
2022/10/12 07:29:40;;;;;;;17.75;10.63;;;6.20;99.90;;;;;;5062565;28;20401;-96
2022/10/12 07:32:06;;;;;;;16.88;8.73;;;6.30;99.90;;;;;;5065556;28;20039;-94
2022/10/12 07:34:55;;;;;;;15.38;10.20;;;6.30;99.90;;;;;;5094289;28;20040;-96
2022/10/12 07:37:21;;;;;;;18.20;10.80;;;6.40;99.90;;;;;;5081495;28;20147;-96
2022/10/12 07:39:47;;;;;;;17.63;11.20;;;6.50;99.90;;;;;;5075589;28;20083;-96
2022/10/12 07:42:13;;;;;;;17.98;10.57;;;6.50;99.90;;;;;;5079777;28;20044;-96
2022/10/12 12:29:53;;;;;;;11.02;4.45;;;12.70;99.90;;;;;;5049257;28;20053;-96
2022/10/12 12:32:21;;;;;;;10.38;4.30;;;12.80;99.90;;;;;;5035623;28;20049;-96
2022/10/12 12:34:54;;;;;;;11.65;4.70;;;12.80;99.90;;;;;;5042894;28;20032;-96
2022/10/12 17:08:58;;;;;;;13.50;5.97;;;12.10;99.90;;;;;;836005;23;20449;-96
2022/10/12 17:11:24;;;;;;;12.23;5.72;;;12.00;99.90;;;;;;4916356;29;20243;-96
2022/10/12 17:13:52;;;;;;;13.45;6.10;;;12.00;99.90;;;;;;4914545;29;20116;-96
2022/10/12 17:19:02;;;;;;;17.33;6.90;;;11.90;99.90;;;;;;4894375;29;20122;-96
2022/10/12 17:21:28;;;;;;;13.13;6.00;;;11.90;99.90;;;;;;4920710;29;20056;-95
2022/10/12 17:23:58;;;;;;;15.05;6.40;;;11.90;99.90;;;;;;4893590;29;20051;-96
2022/10/12 17:26:24;;;;;;;12.98;6.18;;;11.90;99.90;;;;;;4912071;29;20049;-96
2022/10/12 17:28:50;;;;;;;13.68;6.88;;;11.80;99.90;;;;;;4890053;29;20082;-96
2022/10/12 17:31:15;;;;;;;13.25;6.47;;;11.80;99.90;;;;;;4903661;29;20104;-96
2022/10/12 17:33:41;;;;;;;15.55;6.63;;;11.70;99.90;;;;;;4912354;29;20044;-96
2022/10/12 17:36:08;;;;;;;16.17;7.35;;;11.70;99.90;;;;;;4907313;29;20033;-96
2022/10/12 17:38:35;;;;;;;13.30;6.70;;;11.80;99.90;;;;;;4883111;29;20056;-96
2022/10/12 17:41:01;;;;;;;13.10;6.75;;;11.70;99.90;;;;;;4887348;29;20409;-96
2022/10/12 17:43:27;;;;;;;12.88;6.90;;;11.80;99.90;;;;;;4902112;29;20044;-96
2022/10/12 17:45:53;;;;;;;12.30;6.47;;;11.70;99.90;;;;;;4887069;29;20080;-95
2022/10/12 17:48:18;;;;;;;11.77;6.55;;;11.70;99.90;;;;;;4887767;29;20074;-96
2022/10/12 17:50:44;;;;;;;14.52;6.05;;;11.70;99.90;;;;;;4895051;29;20600;-96
2022/10/12 17:53:10;;;;;;;13.05;6.25;;;11.70;99.90;;;;;;4890895;29;20140;-96
2022/10/12 17:55:36;;;;;;;13.02;6.60;;;11.60;99.90;;;;;;4892091;29;20032;-96
2022/10/12 17:58:01;;;;;;;13.52;6.70;;;11.60;99.90;;;;;;4874742;29;20044;-96
2022/10/12 18:00:27;;;;;;;13.68;6.70;;;11.60;99.90;;;;;;4902726;29;20033;-96
2022/10/12 18:02:57;;;;;;;13.07;7.00;;;11.50;99.90;;;;;;4914803;29;20059;-96
2022/10/12 18:05:23;;;;;;;12.88;6.53;;;11.50;99.90;;;;;;4912067;29;20518;-96
2022/10/12 18:07:49;;;;;;;15.68;7.18;;;11.50;99.90;;;;;;4877366;29;20132;-96
2022/10/12 18:10:14;;;;;;;15.43;6.90;;;11.50;99.90;;;;;;4892566;29;20060;-96
2022/10/12 18:12:40;;;;;;;13.80;7.32;;;11.50;99.90;;;;;;4892133;29;20048;-96
2022/10/12 18:15:06;;;;;;;14.20;6.53;;;11.50;99.90;;;;;;4886276;29;20063;-96
2022/10/12 18:17:36;;;;;;;14.88;7.60;;;11.50;99.90;;;;;;4897821;29;20086;-96
2022/10/12 18:20:02;;;;;;;15.65;7.40;;;11.50;99.90;;;;;;4877901;29;20041;-96
2022/10/12 18:22:28;;;;;;;15.43;7.57;;;11.40;99.90;;;;;;4898858;29;20483;-96
2022/10/12 18:24:54;;;;;;;15.68;7.45;;;11.40;99.90;;;;;;4891046;29;20049;-96
2022/10/12 18:27:20;;;;;;;14.50;7.13;;;11.40;99.90;;;;;;4904691;29;20239;-96
2022/10/12 18:29:46;;;;;;;13.40;7.10;;;11.40;99.90;;;;;;4890322;29;20509;-96
2022/10/12 18:32:11;;;;;;;15.73;7.15;;;11.40;99.90;;;;;;4907491;29;20041;-96
2022/10/12 18:34:39;;;;;;;18.05;8.15;;;11.40;99.90;;;;;;4906069;29;20037;-96
2022/10/12 18:37:05;;;;;;;15.93;8.68;;;11.30;99.90;;;;;;4909525;29;20523;-96
2022/10/12 18:39:31;;;;;;;15.38;7.85;;;11.30;99.90;;;;;;4898646;29;20108;-96
2022/10/12 18:42:00;;;;;;;13.10;7.47;;;11.30;99.90;;;;;;4908813;29;20045;-96
2022/10/12 18:44:28;;;;;;;14.25;8.15;;;11.30;99.90;;;;;;4912988;29;20044;-96
2022/10/12 22:16:09;;;;;;;22.60;14.73;;;9.40;99.90;;;;;;4942345;28;20508;-94
2022/10/12 22:18:35;;;;;;;22.25;15.07;;;9.40;99.90;;;;;;4925388;29;20048;-93
2022/10/12 22:21:02;;;;;;;23.55;15.13;;;9.50;99.90;;;;;;4950303;29;20543;-93
2022/10/12 22:23:28;;;;;;;22.13;14.93;;;9.60;99.90;;;;;;4936113;29;20126;-93
2022/10/12 22:26:02;;;;;;;20.00;15.02;;;9.60;99.90;;;;;;4931269;29;20513;-93
2022/10/12 22:28:28;;;;;;;24.33;16.42;;;9.60;99.90;;;;;;4946509;28;20051;-94
2022/10/12 22:30:54;;;;;;;25.13;15.38;;;9.70;99.90;;;;;;4946066;28;20123;-94
2022/10/12 22:33:20;;;;;;;20.25;12.52;;;9.80;99.90;;;;;;4939566;29;20083;-94
2022/10/12 22:35:57;;;;;;;22.75;16.60;;;9.70;99.90;;;;;;4944298;28;20032;-93
2022/10/12 22:38:23;;;;;;;20.55;15.27;;;9.80;99.90;;;;;;4963707;28;20117;-94
2022/10/12 22:41:04;;;;;;;22.85;15.07;;;9.90;99.90;;;;;;4948112;28;20042;-94
2022/10/12 22:43:31;;;;;;;23.25;15.90;;;10.00;99.90;;;;;;4941305;29;20043;-94
2022/10/12 22:45:57;;;;;;;22.73;15.35;;;9.90;99.90;;;;;;4944303;28;20052;-94
2022/10/12 22:48:23;;;;;;;21.92;12.32;;;9.90;99.90;;;;;;4944232;28;20384;-94
2022/10/12 22:50:50;;;;;;;23.30;16.52;;;9.90;99.90;;;;;;4926561;29;20036;-95
2022/10/12 22:53:16;;;;;;;23.63;16.40;;;10.00;99.90;;;;;;4943436;28;20043;-94
2022/10/12 22:55:43;;;;;;;25.83;16.38;;;10.00;99.90;;;;;;4925056;29;20051;-93
2022/10/12 22:58:10;;;;;;;24.33;16.42;;;10.00;99.90;;;;;;4946624;28;20048;-93
2022/10/12 23:00:36;;;;;;;23.83;16.27;;;10.10;99.90;;;;;;4941177;28;20035;-94
2022/10/12 23:03:01;;;;;;;22.13;15.38;;;10.00;99.90;;;;;;4944951;29;20042;-93
2022/10/12 23:05:27;;;;;;;22.80;15.77;;;10.00;99.90;;;;;;4939820;28;20047;-94
2022/10/12 23:07:54;;;;;;;20.00;14.95;;;10.10;99.90;;;;;;4944115;29;20055;-94
2022/10/12 23:10:20;;;;;;;23.10;15.77;;;10.00;99.90;;;;;;4926739;29;20042;-94
2022/10/12 23:12:46;;;;;;;23.35;16.17;;;10.10;99.90;;;;;;4927691;29;20484;-93
2022/10/12 23:15:11;;;;;;;25.15;16.15;;;10.00;99.90;;;;;;4944528;29;20065;-93
2022/10/12 23:17:37;;;;;;;21.77;17.13;;;10.00;99.90;;;;;;4950930;28;20051;-93
2022/10/12 23:20:03;;;;;;;21.67;15.57;;;10.00;99.90;;;;;;4940287;29;20782;-92
2022/10/12 23:22:29;;;;;;;22.38;15.95;;;10.00;99.90;;;;;;4928974;29;20047;-94
2022/10/12 23:24:55;;;;;;;23.33;16.50;;;10.00;99.90;;;;;;4942471;28;20043;-92
2022/10/12 23:27:21;;;;;;;22.17;16.73;;;10.10;99.90;;;;;;4932000;29;20190;-93
2022/10/12 23:29:47;;;;;;;21.80;16.42;;;10.00;99.90;;;;;;4928959;29;20580;-93
2022/10/12 23:32:13;;;;;;;21.50;15.85;;;10.00;99.90;;;;;;4953170;28;20054;-94
2022/10/12 23:34:39;;;;;;;23.95;16.75;;;10.00;99.90;;;;;;4948585;29;20064;-94
2022/10/12 23:37:05;;;;;;;24.88;16.92;;;10.00;99.90;;;;;;4947628;29;20436;-94
2022/10/12 23:39:31;;;;;;;22.90;17.00;;;10.00;99.90;;;;;;4923511;29;20035;-95
2022/10/12 23:41:56;;;;;;;23.13;16.88;;;9.90;99.90;;;;;;4942188;28;20469;-94
2022/10/12 23:44:22;;;;;;;23.85;17.15;;;10.00;99.90;;;;;;4930137;28;20110;-93
2022/10/12 23:46:48;;;;;;;22.13;16.60;;;9.90;99.90;;;;;;4944598;29;20428;-93
2022/10/12 23:49:14;;;;;;;24.33;16.48;;;10.00;99.90;;;;;;4931495;29;20503;-94
2022/10/12 23:51:39;;;;;;;23.15;16.77;;;9.90;99.90;;;;;;4930806;29;20120;-94
2022/10/12 23:54:05;;;;;;;24.17;17.30;;;10.00;99.90;;;;;;4947845;28;20052;-94
2022/10/12 23:56:30;;;;;;;23.45;15.00;;;9.90;99.90;;;;;;4949850;28;20043;-93
2022/10/12 23:58:57;;;;;;;23.02;17.60;;;9.90;99.90;;;;;;4942513;28;20449;-92
